Time;durP1;ratioP1;P1;durP2;ratioP2;P2;SDS_P1;SDS_P2;PMS_P1;PMS_P2;Temp;Humidity;BMP_temperature;BMP_pressure;BME280_temperature;BME280_humidity;BME280_pressure;Samples;Min_cycle;Max_cycle;Signal;HPM_P1;HPM_P2
2024/02/27 10:43:34;;;;;;;8.67;4.43;;;7.30;99.90;;;;;;5101210;27;20575;-77
2024/02/27 10:46:02;;;;;;;10.07;4.60;;;7.90;99.90;;;;;;5090407;28;20203;-75
2024/02/27 10:48:30;;;;;;;7.73;4.13;;;7.80;99.90;;;;;;5090060;28;20207;-77
2024/02/27 10:50:57;;;;;;;10.63;4.60;;;7.80;99.90;;;;;;5090279;28;20202;-76
2024/02/27 10:53:27;;;;;;;9.07;4.37;;;8.10;99.90;;;;;;5089985;28;20655;-77
2024/02/27 10:55:56;;;;;;;7.73;3.57;;;8.30;99.90;;;;;;5090216;28;20633;-78
2024/02/27 10:58:23;;;;;;;8.27;4.00;;;8.10;99.90;;;;;;5090047;28;20293;-78
2024/02/27 11:00:51;;;;;;;6.73;3.23;;;7.80;99.90;;;;;;5090094;28;20203;-79
2024/02/27 11:03:20;;;;;;;7.83;3.87;;;7.60;99.90;;;;;;5090262;28;20306;-77
2024/02/27 11:05:47;;;;;;;6.50;3.43;;;7.30;99.90;;;;;;5090052;28;20290;-77
2024/02/27 11:08:15;;;;;;;10.63;4.20;;;7.50;99.90;;;;;;5089754;28;20294;-76
2024/02/27 11:10:43;;;;;;;7.63;3.60;;;7.70;99.90;;;;;;5089663;28;20214;-76
2024/02/27 11:13:14;;;;;;;14.50;3.90;;;8.00;99.90;;;;;;5089511;28;20321;-76
2024/02/27 11:15:43;;;;;;;6.40;3.20;;;8.10;99.90;;;;;;5089637;28;20203;-75
2024/02/27 11:18:13;;;;;;;8.67;4.17;;;7.90;99.90;;;;;;5089736;28;20203;-77
2024/02/27 11:20:41;;;;;;;7.17;3.30;;;7.80;99.90;;;;;;5089422;28;20298;-76
2024/02/27 11:23:08;;;;;;;6.03;2.77;;;7.70;99.90;;;;;;5089189;28;20277;-75
2024/02/27 11:25:35;;;;;;;6.30;2.87;;;7.50;99.90;;;;;;5089386;28;20753;-76
2024/02/27 11:28:03;;;;;;;6.43;3.47;;;7.40;99.90;;;;;;5089255;28;20250;-78
2024/02/27 11:30:31;;;;;;;7.00;3.10;;;7.40;99.90;;;;;;5081741;28;20671;-78
2024/02/27 11:32:58;;;;;;;4.57;2.57;;;7.60;99.90;;;;;;5080524;28;20321;-76
2024/02/27 11:35:28;;;;;;;7.57;2.97;;;7.60;99.90;;;;;;5088608;28;20634;-75
2024/02/27 11:37:55;;;;;;;9.20;3.27;;;7.70;99.90;;;;;;5088707;28;20210;-75
2024/02/27 11:40:44;;;;;;;4.60;2.50;;;7.70;99.90;;;;;;5088754;28;20199;-77
2024/02/27 11:43:11;;;;;;;9.00;3.50;;;7.90;99.90;;;;;;5061638;28;20692;-76
2024/02/27 11:45:38;;;;;;;7.93;4.10;;;8.00;99.90;;;;;;5057284;28;20686;-79
2024/02/27 11:48:06;;;;;;;5.07;2.83;;;8.30;99.90;;;;;;5070248;28;20290;-75
2024/02/27 11:50:47;;;;;;;6.20;2.83;;;8.50;99.90;;;;;;5058365;28;20200;-78
2024/02/27 11:53:33;;;;;;;4.77;2.50;;;8.50;99.90;;;;;;5066826;28;20707;-78
2024/02/27 11:56:00;;;;;;;7.40;3.33;;;8.40;99.90;;;;;;5063498;28;20203;-78
2024/02/27 11:58:27;;;;;;;5.10;3.03;;;8.50;99.90;;;;;;5075005;28;20207;-78
2024/02/27 12:00:54;;;;;;;5.17;2.63;;;8.70;99.90;;;;;;5061191;28;20567;-77
2024/02/27 12:03:21;;;;;;;6.87;2.83;;;8.90;99.90;;;;;;5074817;28;20231;-76
2024/02/27 12:05:50;;;;;;;6.50;3.30;;;8.90;99.90;;;;;;5074754;28;20286;-74
2024/02/27 12:08:18;;;;;;;8.00;3.03;;;9.10;99.90;;;;;;5074833;28;20211;-75
2024/02/27 12:10:46;;;;;;;6.07;2.90;;;9.10;99.90;;;;;;5073479;28;20203;-75
2024/02/27 12:13:13;;;;;;;6.73;3.00;;;8.90;99.90;;;;;;5068068;28;20259;-76
2024/02/27 12:15:40;;;;;;;9.27;4.43;;;8.70;99.90;;;;;;5072794;28;20286;-75
2024/02/27 12:18:07;;;;;;;5.77;3.03;;;8.80;99.90;;;;;;5061398;28;20299;-77
2024/02/27 12:20:34;;;;;;;5.30;2.70;;;8.70;99.90;;;;;;5074803;28;20632;-75
2024/02/27 12:23:02;;;;;;;6.40;2.70;;;8.60;99.90;;;;;;5074380;28;20219;-76
2024/02/27 12:25:41;;;;;;;5.60;3.00;;;8.80;99.90;;;;;;5074795;28;20209;-75
2024/02/27 12:28:08;;;;;;;6.53;2.63;;;9.10;99.90;;;;;;5063410;28;20225;-76
2024/02/27 12:30:35;;;;;;;5.87;2.70;;;9.20;99.90;;;;;;5074408;28;20290;-77
2024/02/27 12:33:02;;;;;;;5.17;3.00;;;9.20;99.90;;;;;;5074090;28;20682;-78
2024/02/27 12:35:29;;;;;;;5.47;2.83;;;9.40;99.90;;;;;;5074409;28;20268;-78
2024/02/27 12:37:56;;;;;;;5.83;2.60;;;9.50;99.90;;;;;;5074343;28;20291;-77
2024/02/27 12:40:25;;;;;;;6.23;3.13;;;9.50;99.90;;;;;;5071918;28;20200;-78
2024/02/27 12:42:54;;;;;;;7.77;3.10;;;9.50;99.90;;;;;;5062410;28;20323;-76
2024/02/27 12:45:21;;;;;;;7.97;3.70;;;9.50;99.90;;;;;;5071016;28;20233;-76
2024/02/27 12:47:49;;;;;;;6.23;2.40;;;9.50;99.90;;;;;;5074126;28;20298;-78
2024/02/27 12:50:19;;;;;;;5.73;2.47;;;9.40;99.90;;;;;;5073275;28;20210;-77
2024/02/27 12:52:48;;;;;;;4.67;2.20;;;9.20;99.90;;;;;;5074283;28;20242;-77
2024/02/27 12:55:16;;;;;;;5.93;2.90;;;9.20;99.90;;;;;;5073381;28;20682;-77
2024/02/27 12:57:50;;;;;;;6.23;3.23;;;9.30;99.90;;;;;;5074439;28;20203;-76
2024/02/27 13:00:18;;;;;;;3.87;2.53;;;9.70;99.90;;;;;;5073596;28;20209;-76
2024/02/27 13:02:45;;;;;;;3.33;1.97;;;10.10;99.90;;;;;;5074130;28;20667;-76
2024/02/27 13:05:12;;;;;;;3.37;2.10;;;9.70;99.90;;;;;;5074147;28;20297;-77
2024/02/27 13:07:39;;;;;;;4.57;2.43;;;9.50;99.90;;;;;;5074092;28;20660;-77
2024/02/27 13:10:07;;;;;;;3.40;1.93;;;9.60;99.90;;;;;;5074083;28;20204;-77
2024/02/27 13:12:34;;;;;;;5.10;2.00;;;9.70;99.90;;;;;;5073894;28;20341;-76
2024/02/27 13:15:03;;;;;;;4.23;2.10;;;9.70;99.90;;;;;;5074085;28;20306;-76
2024/02/27 13:17:29;;;;;;;5.70;1.70;;;9.60;99.90;;;;;;5073978;28;20242;-78
2024/02/27 13:19:56;;;;;;;3.77;2.20;;;9.60;99.90;;;;;;5074041;28;20206;-78
2024/02/27 13:22:23;;;;;;;3.97;1.97;;;10.00;99.90;;;;;;5073834;28;20302;-77
2024/02/27 13:24:50;;;;;;;4.10;2.20;;;10.30;99.90;;;;;;5073686;28;20219;-78
2024/02/27 13:27:17;;;;;;;4.70;2.53;;;10.30;99.90;;;;;;5073693;28;20298;-76
2024/02/27 13:29:44;;;;;;;3.70;2.03;;;10.10;99.90;;;;;;5073778;28;20225;-77
2024/02/27 13:32:13;;;;;;;4.53;2.40;;;10.20;99.90;;;;;;5073764;28;20230;-78
2024/02/27 13:34:39;;;;;;;4.27;2.67;;;10.40;99.90;;;;;;5073629;28;20233;-78
2024/02/27 13:37:06;;;;;;;3.47;2.03;;;10.70;99.90;;;;;;5073566;28;20666;-76
2024/02/27 13:39:33;;;;;;;4.90;2.00;;;10.80;99.90;;;;;;5073734;28;20301;-76
2024/02/27 13:42:02;;;;;;;3.47;1.97;;;10.80;99.90;;;;;;5073279;28;20583;-77
2024/02/27 13:44:29;;;;;;;4.73;2.40;;;10.70;99.90;;;;;;5073456;28;20691;-77
2024/02/27 13:46:56;;;;;;;2.97;1.97;;;10.60;99.90;;;;;;5073462;28;20214;-78
2024/02/27 13:49:24;;;;;;;3.03;1.77;;;10.60;99.90;;;;;;5073425;28;20207;-77
2024/02/27 13:51:51;;;;;;;5.57;2.03;;;10.40;99.90;;;;;;5073197;28;20202;-77
2024/02/27 13:54:18;;;;;;;5.10;2.37;;;10.30;99.90;;;;;;5073365;28;20259;-78
2024/02/27 13:56:45;;;;;;;5.20;2.07;;;10.50;99.90;;;;;;5073148;28;20209;-77
2024/02/27 13:59:12;;;;;;;4.93;2.03;;;10.40;99.90;;;;;;5073234;28;20328;-77
2024/02/27 14:01:39;;;;;;;3.33;2.00;;;10.20;99.90;;;;;;5073061;28;20742;-78
2024/02/27 14:04:06;;;;;;;3.97;1.93;;;10.20;99.90;;;;;;5073188;28;20639;-77
2024/02/27 14:06:34;;;;;;;4.40;2.30;;;10.50;99.90;;;;;;5073160;28;20239;-78
2024/02/27 14:09:01;;;;;;;2.33;1.50;;;10.60;99.90;;;;;;5073446;28;20203;-77
2024/02/27 14:11:28;;;;;;;3.03;1.83;;;10.40;99.90;;;;;;5073228;28;20222;-78
2024/02/27 14:13:55;;;;;;;2.97;1.63;;;10.30;99.90;;;;;;5072869;28;20603;-77
2024/02/27 14:16:22;;;;;;;3.13;1.77;;;10.30;99.90;;;;;;5072901;28;20754;-77
2024/02/27 14:18:49;;;;;;;3.17;1.87;;;10.30;99.90;;;;;;5072984;28;20203;-78
2024/02/27 14:21:19;;;;;;;2.30;1.43;;;10.40;99.90;;;;;;5073098;28;20654;-76
2024/02/27 14:23:47;;;;;;;4.43;1.90;;;10.50;99.90;;;;;;5073361;28;20234;-78
2024/02/27 14:26:14;;;;;;;3.87;1.97;;;10.90;99.90;;;;;;5073735;28;20213;-77
2024/02/27 14:28:40;;;;;;;5.07;1.73;;;11.20;99.90;;;;;;5072868;28;20726;-76
2024/02/27 14:31:07;;;;;;;2.93;1.70;;;11.20;99.90;;;;;;5072833;28;20209;-76
2024/02/27 14:33:34;;;;;;;2.40;1.50;;;11.00;99.90;;;;;;5072772;28;20583;-78
2024/02/27 14:36:01;;;;;;;3.40;1.67;;;11.20;99.90;;;;;;5072913;28;20294;-77
2024/02/27 14:38:30;;;;;;;3.00;1.77;;;11.20;99.90;;;;;;5072619;28;20231;-77
2024/02/27 14:40:58;;;;;;;3.70;1.67;;;11.40;99.90;;;;;;5072698;28;20209;-77
2024/02/27 14:43:25;;;;;;;4.83;1.73;;;11.20;99.90;;;;;;5072489;28;20241;-76
2024/02/27 14:45:52;;;;;;;3.17;1.60;;;10.90;99.90;;;;;;5072630;28;20199;-76
2024/02/27 14:48:20;;;;;;;3.20;1.47;;;11.00;99.90;;;;;;5072853;28;20199;-76
2024/02/27 14:50:47;;;;;;;3.47;1.83;;;11.00;99.90;;;;;;5072857;28;20207;-78
2024/02/27 14:53:14;;;;;;;2.60;1.57;;;11.20;99.90;;;;;;5072024;28;20771;-77
2024/02/27 14:55:42;;;;;;;2.70;1.40;;;11.50;99.90;;;;;;5072504;28;20199;-76
2024/02/27 14:58:13;;;;;;;2.20;1.40;;;11.60;99.90;;;;;;5072716;28;20656;-76
2024/02/27 15:00:40;;;;;;;3.80;1.63;;;11.50;99.90;;;;;;5072580;28;20205;-75
2024/02/27 15:03:07;;;;;;;2.57;1.40;;;11.50;99.90;;;;;;5072256;28;20230;-75
2024/02/27 15:05:33;;;;;;;3.63;1.90;;;11.50;99.90;;;;;;5072248;28;20300;-77
2024/02/27 15:08:00;;;;;;;4.87;1.93;;;11.50;99.90;;;;;;5072300;28;20230;-76
2024/02/27 15:10:27;;;;;;;3.37;1.50;;;11.50;99.90;;;;;;5072425;28;20209;-76
2024/02/27 15:12:56;;;;;;;2.90;1.60;;;11.40;99.90;;;;;;5072177;28;20327;-76
2024/02/27 15:15:24;;;;;;;4.13;1.50;;;11.30;99.90;;;;;;5072355;28;20211;-76
2024/02/27 15:17:51;;;;;;;4.77;1.63;;;11.30;99.90;;;;;;5073095;28;20209;-78
2024/02/27 15:20:18;;;;;;;2.67;1.47;;;11.20;99.90;;;;;;5076218;28;20683;-77
2024/02/27 15:22:44;;;;;;;2.90;1.63;;;11.20;99.90;;;;;;5076075;28;20203;-77
2024/02/27 15:25:11;;;;;;;3.37;1.43;;;11.20;99.90;;;;;;5075971;28;20849;-76
2024/02/27 15:27:38;;;;;;;2.87;1.53;;;11.20;99.90;;;;;;5075846;28;20203;-77
2024/02/27 15:30:06;;;;;;;2.50;1.37;;;11.20;99.90;;;;;;5075941;28;20232;-75
2024/02/27 15:32:34;;;;;;;2.33;1.40;;;11.20;99.90;;;;;;5076077;28;20560;-76
2024/02/27 15:35:01;;;;;;;2.37;1.50;;;11.10;99.90;;;;;;5075993;28;20735;-77
2024/02/27 15:37:28;;;;;;;2.80;1.57;;;11.20;99.90;;;;;;5075661;28;20257;-78
2024/02/27 15:39:55;;;;;;;2.27;1.10;;;11.20;99.90;;;;;;5075621;28;20209;-77
2024/02/27 15:42:22;;;;;;;3.00;1.47;;;11.20;99.90;;;;;;5075586;28;20218;-77
2024/02/27 15:44:48;;;;;;;2.87;1.40;;;11.30;99.90;;;;;;5076093;28;20318;-76
2024/02/27 15:47:15;;;;;;;2.73;1.30;;;11.20;99.90;;;;;;5075651;28;20623;-77
2024/02/27 15:49:43;;;;;;;4.93;1.90;;;11.20;99.90;;;;;;5075838;28;20298;-78
2024/02/27 15:52:10;;;;;;;3.73;1.77;;;11.20;99.90;;;;;;5075544;28;20210;-75
2024/02/27 15:54:37;;;;;;;2.50;1.23;;;11.20;99.90;;;;;;5075289;28;20603;-78
2024/02/27 15:57:04;;;;;;;2.87;1.53;;;11.20;99.90;;;;;;5075721;28;20207;-78
2024/02/27 15:59:31;;;;;;;2.60;1.13;;;11.20;99.90;;;;;;5075777;28;20229;-78
2024/02/27 16:02:00;;;;;;;3.40;1.50;;;11.20;99.90;;;;;;5075674;28;20298;-76
2024/02/27 16:04:37;;;;;;;3.87;1.67;;;11.20;99.90;;;;;;5075447;28;20266;-76
2024/02/27 16:07:09;;;;;;;4.83;2.13;;;11.20;99.90;;;;;;5075108;28;20651;-76
2024/02/27 16:09:37;;;;;;;8.50;2.60;;;11.00;99.90;;;;;;5075378;28;20743;-77
2024/02/27 16:12:05;;;;;;;4.10;2.20;;;10.80;99.90;;;;;;5075318;28;20682;-76
2024/02/27 16:14:32;;;;;;;5.07;2.57;;;10.90;99.90;;;;;;5075233;28;20234;-76
2024/02/27 16:16:59;;;;;;;4.23;2.60;;;10.90;99.90;;;;;;5075020;28;20294;-76
2024/02/27 16:19:25;;;;;;;3.90;2.17;;;10.80;99.90;;;;;;5075200;28;20216;-77
2024/02/27 16:21:52;;;;;;;7.87;2.60;;;10.70;99.90;;;;;;5074948;28;20222;-76
2024/02/27 16:24:20;;;;;;;5.97;2.67;;;10.80;99.90;;;;;;5075178;28;20230;-76
2024/02/27 16:26:47;;;;;;;6.50;2.40;;;10.70;99.90;;;;;;5075302;28;20213;-77
2024/02/27 16:29:15;;;;;;;5.50;2.23;;;10.70;99.90;;;;;;5074951;28;20204;-77
2024/02/27 16:31:44;;;;;;;5.00;2.33;;;10.60;99.90;;;;;;5074795;28;20211;-77
2024/02/27 16:34:11;;;;;;;4.03;2.17;;;10.50;99.90;;;;;;5092373;22;20227;-73
2024/02/27 16:36:40;;;;;;;5.43;2.97;;;10.30;99.90;;;;;;5074654;28;20565;-72
2024/02/27 16:39:08;;;;;;;6.90;2.30;;;10.20;99.90;;;;;;5074933;28;20297;-72
2024/02/27 16:41:36;;;;;;;5.60;2.63;;;10.30;99.90;;;;;;5074522;28;20571;-73
2024/02/27 16:44:02;;;;;;;6.10;2.20;;;10.20;99.90;;;;;;5059043;28;20220;-72
2024/02/27 16:46:29;;;;;;;4.43;2.27;;;10.00;99.90;;;;;;5063240;28;20235;-72
2024/02/27 16:48:56;;;;;;;4.30;2.20;;;9.90;99.90;;;;;;5073968;28;20214;-72
2024/02/27 16:51:23;;;;;;;5.13;2.50;;;9.80;99.90;;;;;;5074040;28;20207;-71
2024/02/27 16:53:50;;;;;;;4.70;2.47;;;9.90;99.90;;;;;;5073510;28;20235;-72
2024/02/27 16:56:17;;;;;;;6.07;2.70;;;9.80;99.90;;;;;;5073785;28;20235;-73
2024/02/27 16:58:45;;;;;;;4.90;2.40;;;10.00;99.90;;;;;;5073583;28;20221;-72
2024/02/27 17:01:12;;;;;;;6.80;2.43;;;9.90;99.90;;;;;;5073695;28;20213;-72
2024/02/27 17:03:40;;;;;;;6.53;3.13;;;9.90;99.90;;;;;;5073987;28;20230;-73
2024/02/27 17:06:07;;;;;;;5.77;2.80;;;9.70;99.90;;;;;;5073341;28;20261;-73
2024/02/27 17:08:34;;;;;;;4.60;2.73;;;9.60;99.90;;;;;;5073254;28;20282;-74
2024/02/27 17:11:01;;;;;;;7.07;3.03;;;9.50;99.90;;;;;;5073291;28;20290;-74
2024/02/27 17:13:28;;;;;;;6.23;2.73;;;9.50;99.90;;;;;;5068415;28;20235;-73
2024/02/27 17:15:56;;;;;;;6.17;2.30;;;9.40;99.90;;;;;;5068696;28;20214;-73
2024/02/27 17:18:23;;;;;;;7.23;2.67;;;9.40;99.90;;;;;;5072954;28;20663;-73
2024/02/27 17:20:53;;;;;;;4.83;2.33;;;9.40;99.90;;;;;;5072766;28;20298;-73
2024/02/27 17:23:19;;;;;;;7.80;2.17;;;9.40;99.90;;;;;;5072714;28;20219;-73
2024/02/27 17:25:48;;;;;;;4.40;2.10;;;9.30;99.90;;;;;;5072442;28;20225;-74
2024/02/27 17:28:15;;;;;;;4.87;2.33;;;9.20;99.90;;;;;;5073162;28;20206;-73
2024/02/27 17:30:42;;;;;;;4.70;2.30;;;9.20;99.90;;;;;;5072997;28;20655;-72
2024/02/27 17:33:11;;;;;;;6.57;2.87;;;9.10;99.90;;;;;;5072625;28;20317;-73
2024/02/27 17:35:38;;;;;;;6.00;2.73;;;9.00;99.90;;;;;;5072776;28;20256;-73
2024/02/27 17:38:05;;;;;;;6.87;3.40;;;8.90;99.90;;;;;;5072891;28;20212;-73
2024/02/27 17:40:32;;;;;;;7.50;3.20;;;9.00;99.90;;;;;;5072351;28;20200;-73
2024/02/27 17:42:59;;;;;;;8.00;3.03;;;9.00;99.90;;;;;;5072722;28;20223;-73
2024/02/27 17:45:26;;;;;;;7.40;3.00;;;8.90;99.90;;;;;;5072816;28;20222;-74
2024/02/27 17:47:52;;;;;;;8.70;3.10;;;8.70;99.90;;;;;;5064022;28;20214;-73
2024/02/27 17:50:21;;;;;;;7.70;2.63;;;8.50;99.90;;;;;;5069199;28;20211;-73
2024/02/27 17:52:47;;;;;;;5.30;2.63;;;8.50;99.90;;;;;;5072838;28;20226;-73
2024/02/27 17:55:15;;;;;;;5.57;2.77;;;8.20;99.90;;;;;;5072426;28;20231;-73
2024/02/27 17:57:42;;;;;;;7.13;2.80;;;8.20;99.90;;;;;;5072419;28;20334;-73
2024/02/27 18:00:10;;;;;;;4.80;2.40;;;8.20;99.90;;;;;;5072211;28;20195;-73
2024/02/27 18:02:36;;;;;;;11.57;3.30;;;8.20;99.90;;;;;;5071987;28;20294;-73
2024/02/27 18:05:03;;;;;;;5.43;3.03;;;8.40;99.90;;;;;;5072512;28;20574;-74
2024/02/27 18:07:31;;;;;;;8.67;3.00;;;8.40;99.90;;;;;;5072537;28;20289;-73
2024/02/27 18:09:58;;;;;;;5.63;2.37;;;8.30;99.90;;;;;;5072414;28;20759;-73
2024/02/27 18:12:27;;;;;;;5.83;2.67;;;8.20;99.90;;;;;;5072920;28;20203;-73
2024/02/27 18:14:55;;;;;;;5.03;2.63;;;8.00;99.90;;;;;;5072099;28;20227;-73
2024/02/27 18:17:22;;;;;;;6.03;3.00;;;7.80;99.90;;;;;;5072352;28;20233;-72
2024/02/27 18:19:49;;;;;;;8.67;2.97;;;7.80;99.90;;;;;;5072350;28;20290;-72
2024/02/27 18:22:16;;;;;;;5.73;3.00;;;7.70;99.90;;;;;;5070006;28;20199;-74
2024/02/27 18:24:44;;;;;;;5.13;2.67;;;7.60;99.90;;;;;;5071983;28;20215;-74
2024/02/27 18:27:11;;;;;;;4.63;2.30;;;7.60;99.90;;;;;;5072119;28;20290;-73
2024/02/27 18:29:39;;;;;;;7.03;2.87;;;7.70;99.90;;;;;;5072454;28;20203;-73
2024/02/27 18:32:06;;;;;;;5.57;2.50;;;7.70;99.90;;;;;;5072561;28;20293;-72
2024/02/27 18:34:33;;;;;;;6.30;2.50;;;7.80;99.90;;;;;;5072208;28;20572;-74
2024/02/27 18:37:00;;;;;;;6.23;2.73;;;7.80;99.90;;;;;;5071916;28;20319;-74
2024/02/27 18:39:27;;;;;;;5.10;2.60;;;7.80;99.90;;;;;;5072660;28;20227;-73
2024/02/27 18:41:55;;;;;;;6.77;3.10;;;7.80;99.90;;;;;;5071937;28;20735;-73
2024/02/27 18:44:24;;;;;;;6.57;2.80;;;7.70;99.90;;;;;;5072450;28;20311;-72
2024/02/27 18:46:51;;;;;;;6.03;2.27;;;7.70;99.90;;;;;;5072103;28;20253;-72
2024/02/27 18:49:17;;;;;;;5.93;2.30;;;7.70;99.90;;;;;;5072300;28;20293;-72
2024/02/27 18:51:44;;;;;;;5.27;2.40;;;7.80;99.90;;;;;;5071840;28;20207;-72
2024/02/27 18:54:11;;;;;;;7.93;2.70;;;7.80;99.90;;;;;;5075029;28;20249;-72
2024/02/27 18:56:39;;;;;;;5.77;2.67;;;7.90;99.90;;;;;;5074619;28;20659;-73
2024/02/27 18:59:07;;;;;;;7.63;2.80;;;7.90;99.90;;;;;;5075468;28;20210;-72
2024/02/27 19:01:34;;;;;;;5.30;2.70;;;7.90;99.90;;;;;;5076255;28;20207;-72
2024/02/27 19:04:03;;;;;;;6.90;2.97;;;7.80;99.90;;;;;;5076393;28;20222;-72
2024/02/27 19:06:30;;;;;;;7.07;3.17;;;7.70;99.90;;;;;;5076563;28;20293;-72
2024/02/27 19:08:56;;;;;;;7.63;2.60;;;7.70;99.90;;;;;;5076143;28;20626;-73
2024/02/27 19:11:23;;;;;;;4.97;3.17;;;7.60;99.90;;;;;;5076267;28;20203;-73
2024/02/27 19:13:50;;;;;;;5.23;2.67;;;7.60;99.90;;;;;;5076008;28;20234;-72
2024/02/27 19:16:19;;;;;;;8.27;3.67;;;7.50;99.90;;;;;;5076079;28;20213;-72
2024/02/27 19:18:46;;;;;;;5.73;2.97;;;7.50;99.90;;;;;;5075952;28;20210;-72
2024/02/27 19:21:13;;;;;;;6.77;3.00;;;7.40;99.90;;;;;;5076211;28;20295;-73
2024/02/27 19:23:40;;;;;;;6.37;3.00;;;7.40;99.90;;;;;;5075834;28;20230;-72
2024/02/27 19:26:07;;;;;;;6.27;3.10;;;7.30;99.90;;;;;;5076233;28;20207;-73
2024/02/27 19:28:39;;;;;;;7.80;3.07;;;7.30;99.90;;;;;;5076038;28;20199;-73
2024/02/27 19:31:06;;;;;;;7.13;3.73;;;7.30;99.90;;;;;;5075893;28;20656;-74
2024/02/27 19:33:34;;;;;;;6.13;2.67;;;7.20;99.90;;;;;;5068045;28;20223;-73
2024/02/27 19:36:01;;;;;;;7.47;3.30;;;7.20;99.90;;;;;;5058760;28;20204;-73
2024/02/27 19:38:28;;;;;;;8.03;3.10;;;7.10;99.90;;;;;;5073589;28;20208;-73
2024/02/27 19:40:57;;;;;;;7.07;3.20;;;7.10;99.90;;;;;;5075495;28;20652;-73
2024/02/27 19:43:24;;;;;;;8.23;3.67;;;7.10;99.90;;;;;;5064519;28;20223;-73
2024/02/27 19:45:51;;;;;;;8.10;3.20;;;7.10;99.90;;;;;;5074389;28;20298;-73
2024/02/27 19:48:18;;;;;;;7.13;3.37;;;7.00;99.90;;;;;;5074982;28;20204;-73
2024/02/27 19:50:46;;;;;;;9.07;3.53;;;7.00;99.90;;;;;;5074933;28;20207;-74
2024/02/27 19:53:13;;;;;;;8.73;3.77;;;6.90;99.90;;;;;;5074579;28;20310;-73
2024/02/27 19:55:40;;;;;;;10.43;4.10;;;6.90;99.90;;;;;;5075054;28;20659;-73
2024/02/27 19:58:07;;;;;;;7.80;4.13;;;6.90;99.90;;;;;;5074860;28;20239;-74
2024/02/27 20:00:36;;;;;;;7.17;4.43;;;6.90;99.90;;;;;;5074624;28;20203;-74
2024/02/27 20:03:03;;;;;;;7.37;3.50;;;6.90;99.90;;;;;;5072712;28;20651;-74
2024/02/27 20:05:30;;;;;;;9.17;3.30;;;6.80;99.90;;;;;;5060340;28;20223;-73
2024/02/27 20:07:58;;;;;;;9.43;4.07;;;6.70;99.90;;;;;;5074315;28;20744;-74
2024/02/27 20:10:25;;;;;;;8.43;3.80;;;6.60;99.90;;;;;;5074159;28;20199;-74
2024/02/27 20:12:52;;;;;;;7.17;3.30;;;6.60;99.90;;;;;;5063048;28;20230;-73
2024/02/27 20:15:19;;;;;;;6.97;3.40;;;6.40;99.90;;;;;;5072940;28;20253;-73
2024/02/27 20:17:47;;;;;;;7.87;3.77;;;6.50;99.90;;;;;;5074781;28;20643;-74
2024/02/27 20:20:14;;;;;;;9.10;3.20;;;6.60;99.90;;;;;;5074797;28;20290;-72
2024/02/27 20:22:41;;;;;;;7.20;3.50;;;6.50;99.90;;;;;;5074131;28;20286;-72
2024/02/27 20:25:09;;;;;;;10.57;3.90;;;6.40;99.90;;;;;;5074483;28;20211;-73
2024/02/27 20:27:37;;;;;;;4.37;2.50;;;6.40;99.90;;;;;;5074534;28;20203;-73
2024/02/27 20:30:05;;;;;;;8.57;3.67;;;6.30;99.90;;;;;;5062418;28;20208;-73
2024/02/27 20:32:32;;;;;;;5.70;3.10;;;6.30;99.90;;;;;;5063596;28;20200;-73
2024/02/27 20:34:59;;;;;;;6.03;2.73;;;6.30;99.90;;;;;;5073951;28;20223;-72
2024/02/27 20:37:25;;;;;;;7.60;2.73;;;6.30;99.90;;;;;;5074220;28;20205;-73
2024/02/27 20:39:52;;;;;;;7.53;3.73;;;6.20;99.90;;;;;;5073727;28;20203;-73
2024/02/27 20:42:20;;;;;;;10.03;3.97;;;6.00;99.90;;;;;;5074519;28;20298;-73
2024/02/27 20:44:48;;;;;;;11.40;4.00;;;5.90;99.90;;;;;;5073882;28;20231;-73
2024/02/27 20:47:16;;;;;;;8.27;3.33;;;5.90;99.90;;;;;;5074335;28;20199;-73
2024/02/27 20:49:43;;;;;;;5.57;3.17;;;5.80;99.90;;;;;;5074118;28;20294;-73
2024/02/27 20:52:09;;;;;;;6.10;3.40;;;5.80;99.90;;;;;;5073551;28;20213;-73
2024/02/27 20:54:36;;;;;;;6.70;3.33;;;5.90;99.90;;;;;;5073764;28;20239;-73
2024/02/27 20:57:03;;;;;;;7.03;3.30;;;5.90;99.90;;;;;;5073697;28;20199;-73
2024/02/27 20:59:31;;;;;;;9.17;3.80;;;5.80;99.90;;;;;;5070871;28;20686;-73
2024/02/27 21:01:58;;;;;;;5.77;2.93;;;5.70;99.90;;;;;;5069764;28;20294;-73
2024/02/27 21:04:26;;;;;;;7.57;3.33;;;5.70;99.90;;;;;;5073425;28;20229;-74
2024/02/27 21:06:52;;;;;;;9.17;3.43;;;5.60;99.90;;;;;;5073910;28;20203;-73
2024/02/27 21:09:20;;;;;;;8.50;3.37;;;5.50;99.90;;;;;;5073066;28;20201;-72
2024/02/27 21:11:46;;;;;;;7.93;3.53;;;5.40;99.90;;;;;;5073493;28;20230;-73
2024/02/27 21:14:13;;;;;;;8.37;3.90;;;5.30;99.90;;;;;;5073697;28;20219;-73
2024/02/27 21:16:41;;;;;;;9.00;3.37;;;5.30;99.90;;;;;;5072742;28;20293;-73
2024/02/27 21:19:08;;;;;;;7.20;3.40;;;5.30;99.90;;;;;;5073228;28;20302;-73
2024/02/27 21:21:35;;;;;;;7.63;3.30;;;5.30;99.90;;;;;;5073576;28;20297;-73
2024/02/27 21:24:02;;;;;;;8.50;3.40;;;5.30;99.90;;;;;;5073082;28;20567;-73
2024/02/27 21:26:29;;;;;;;10.57;3.90;;;5.20;99.90;;;;;;5073490;28;20203;-73
2024/02/27 21:28:56;;;;;;;7.50;3.33;;;5.30;99.90;;;;;;5073442;28;20302;-73
2024/02/27 21:31:23;;;;;;;5.87;3.17;;;5.30;99.90;;;;;;5067067;28;20199;-72
2024/02/27 21:33:51;;;;;;;8.63;3.20;;;5.30;99.90;;;;;;5064820;28;20237;-73
2024/02/27 21:36:18;;;;;;;8.90;3.53;;;5.20;99.90;;;;;;5072646;28;20603;-73
2024/02/27 21:38:45;;;;;;;8.20;3.33;;;5.10;99.90;;;;;;5073036;28;20199;-73
2024/02/27 21:41:12;;;;;;;8.87;3.27;;;5.00;99.90;;;;;;5066448;28;20686;-73
2024/02/27 21:43:39;;;;;;;6.53;3.53;;;4.90;99.90;;;;;;5067638;28;20221;-73
2024/02/27 21:46:07;;;;;;;7.13;3.80;;;4.90;99.90;;;;;;5072920;28;20286;-73
2024/02/27 21:48:33;;;;;;;6.67;3.53;;;4.80;99.90;;;;;;5072964;28;20645;-73
